sensor_id;sensor_type;location;lat;lon;timestamp;temperature;humidity
23069;DHT22;11702;50.856;4.348;2023-03-14T05:35:46;10.70;99.90
23069;DHT22;11702;50.856;4.348;2023-03-14T05:38:11;10.60;99.90
23069;DHT22;11702;50.856;4.348;2023-03-14T05:40:37;10.70;99.90
23069;DHT22;11702;50.856;4.348;2023-03-14T05:43:03;10.70;99.90
23069;DHT22;11702;50.856;4.348;2023-03-14T05:45:28;10.70;99.90
23069;DHT22;11702;50.856;4.348;2023-03-14T05:47:54;10.70;99.90
23069;DHT22;11702;50.856;4.348;2023-03-14T05:50:22;10.60;99.90
23069;DHT22;11702;50.856;4.348;2023-03-14T05:52:49;10.70;99.90
23069;DHT22;11702;50.856;4.348;2023-03-14T05:55:15;10.60;99.90
23069;DHT22;11702;50.856;4.348;2023-03-14T05:57:41;10.60;99.90
23069;DHT22;11702;50.856;4.348;2023-03-14T06:00:10;10.60;99.90
23069;DHT22;11702;50.856;4.348;2023-03-14T06:02:36;10.60;99.90
23069;DHT22;11702;50.856;4.348;2023-03-14T06:05:04;10.60;99.90
23069;DHT22;11702;50.856;4.348;2023-03-14T06:07:30;10.70;99.90
23069;DHT22;11702;50.856;4.348;2023-03-14T06:09:58;10.70;99.90
23069;DHT22;11702;50.856;4.348;2023-03-14T06:12:26;10.60;99.90
23069;DHT22;11702;50.856;4.348;2023-03-14T06:14:52;10.70;99.90
23069;DHT22;11702;50.856;4.348;2023-03-14T06:17:19;10.70;99.90
23069;DHT22;11702;50.856;4.348;2023-03-14T06:19:47;10.60;99.90
23069;DHT22;11702;50.856;4.348;2023-03-14T06:22:14;10.60;99.90
23069;DHT22;11702;50.856;4.348;2023-03-14T06:24:40;10.60;99.90
23069;DHT22;11702;50.856;4.348;2023-03-14T06:27:07;10.60;99.90
23069;DHT22;11702;50.856;4.348;2023-03-14T06:29:33;10.80;99.90
23069;DHT22;11702;50.856;4.348;2023-03-14T06:31:58;10.60;99.90
23069;DHT22;11702;50.856;4.348;2023-03-14T06:34:24;10.60;99.90
23069;DHT22;11702;50.856;4.348;2023-03-14T06:36:52;10.60;99.90
23069;DHT22;11702;50.856;4.348;2023-03-14T06:39:18;10.60;99.90
23069;DHT22;11702;50.856;4.348;2023-03-14T06:41:45;10.60;99.90
23069;DHT22;11702;50.856;4.348;2023-03-14T06:44:12;10.60;99.90
23069;DHT22;11702;50.856;4.348;2023-03-14T07:11:18;8.10;99.90
23069;DHT22;11702;50.856;4.348;2023-03-14T07:17:06;7.60;99.90
23069;DHT22;11702;50.856;4.348;2023-03-14T07:19:36;7.50;99.90
23069;DHT22;11702;50.856;4.348;2023-03-14T07:22:37;7.30;99.90
23069;DHT22;11702;50.856;4.348;2023-03-14T07:25:16;7.30;99.90
23069;DHT22;11702;50.856;4.348;2023-03-14T07:27:45;7.30;99.90
23069;DHT22;11702;50.856;4.348;2023-03-14T07:30:13;7.40;99.90
23069;DHT22;11702;50.856;4.348;2023-03-14T07:32:39;7.50;99.90
23069;DHT22;11702;50.856;4.348;2023-03-14T07:35:05;7.40;99.90
23069;DHT22;11702;50.856;4.348;2023-03-14T07:37:30;7.40;99.90
23069;DHT22;11702;50.856;4.348;2023-03-14T07:39:56;7.40;99.90
23069;DHT22;11702;50.856;4.348;2023-03-14T07:42:21;7.40;99.90
23069;DHT22;11702;50.856;4.348;2023-03-14T07:44:47;7.40;99.90
23069;DHT22;11702;50.856;4.348;2023-03-14T07:47:13;7.40;99.90
23069;DHT22;11702;50.856;4.348;2023-03-14T07:49:38;7.50;99.90
23069;DHT22;11702;50.856;4.348;2023-03-14T07:52:04;7.50;99.90
23069;DHT22;11702;50.856;4.348;2023-03-14T07:54:30;7.60;99.90
23069;DHT22;11702;50.856;4.348;2023-03-14T07:56:55;7.50;99.90
23069;DHT22;11702;50.856;4.348;2023-03-14T07:59:21;7.40;99.90
23069;DHT22;11702;50.856;4.348;2023-03-14T08:01:46;7.40;99.90
23069;DHT22;11702;50.856;4.348;2023-03-14T08:04:12;7.50;99.90
23069;DHT22;11702;50.856;4.348;2023-03-14T08:06:38;7.50;99.90
23069;DHT22;11702;50.856;4.348;2023-03-14T08:09:04;7.50;99.90
23069;DHT22;11702;50.856;4.348;2023-03-14T08:11:30;7.50;99.90
23069;DHT22;11702;50.856;4.348;2023-03-14T08:13:55;7.60;99.90
23069;DHT22;11702;50.856;4.348;2023-03-14T08:16:22;7.50;99.90
23069;DHT22;11702;50.856;4.348;2023-03-14T08:18:47;7.40;99.90
23069;DHT22;11702;50.856;4.348;2023-03-14T08:21:13;7.50;99.90
23069;DHT22;11702;50.856;4.348;2023-03-14T08:23:39;7.50;99.90
23069;DHT22;11702;50.856;4.348;2023-03-14T08:26:06;7.50;99.90
23069;DHT22;11702;50.856;4.348;2023-03-14T08:28:31;7.40;99.90
23069;DHT22;11702;50.856;4.348;2023-03-14T08:30:59;7.60;99.90
23069;DHT22;11702;50.856;4.348;2023-03-14T08:33:26;7.50;99.90
23069;DHT22;11702;50.856;4.348;2023-03-14T08:35:56;7.40;99.90
23069;DHT22;11702;50.856;4.348;2023-03-14T08:38:23;7.30;99.90
23069;DHT22;11702;50.856;4.348;2023-03-14T08:40:48;7.10;99.90
23069;DHT22;11702;50.856;4.348;2023-03-14T08:43:15;6.90;99.90
23069;DHT22;11702;50.856;4.348;2023-03-14T08:45:42;6.90;99.90
23069;DHT22;11702;50.856;4.348;2023-03-14T08:48:17;6.90;99.90
23069;DHT22;11702;50.856;4.348;2023-03-14T08:50:45;6.80;99.90
23069;DHT22;11702;50.856;4.348;2023-03-14T08:53:10;6.70;99.90
23069;DHT22;11702;50.856;4.348;2023-03-14T08:55:36;6.80;99.90
23069;DHT22;11702;50.856;4.348;2023-03-14T08:58:01;6.70;99.90
23069;DHT22;11702;50.856;4.348;2023-03-14T09:00:27;6.70;99.90
23069;DHT22;11702;50.856;4.348;2023-03-14T09:02:53;6.60;99.90
23069;DHT22;11702;50.856;4.348;2023-03-14T09:05:18;6.80;99.90
23069;DHT22;11702;50.856;4.348;2023-03-14T09:07:44;6.70;99.90
23069;DHT22;11702;50.856;4.348;2023-03-14T09:10:10;6.80;99.90
23069;DHT22;11702;50.856;4.348;2023-03-14T09:12:36;6.80;99.90
23069;DHT22;11702;50.856;4.348;2023-03-14T09:15:02;6.80;99.90
23069;DHT22;11702;50.856;4.348;2023-03-14T09:17:29;6.90;99.90
23069;DHT22;11702;50.856;4.348;2023-03-14T09:19:55;6.70;99.90
23069;DHT22;11702;50.856;4.348;2023-03-14T09:22:20;6.90;99.90
23069;DHT22;11702;50.856;4.348;2023-03-14T09:24:46;6.80;99.90
23069;DHT22;11702;50.856;4.348;2023-03-14T09:27:12;6.90;99.90
23069;DHT22;11702;50.856;4.348;2023-03-14T09:29:38;6.90;99.90
23069;DHT22;11702;50.856;4.348;2023-03-14T09:32:03;6.90;99.90
23069;DHT22;11702;50.856;4.348;2023-03-14T09:34:29;6.90;99.90
23069;DHT22;11702;50.856;4.348;2023-03-14T09:36:55;7.00;99.90
23069;DHT22;11702;50.856;4.348;2023-03-14T09:39:20;7.00;99.90
23069;DHT22;11702;50.856;4.348;2023-03-14T09:41:51;6.90;99.90
23069;DHT22;11702;50.856;4.348;2023-03-14T09:44:38;7.00;99.90
23069;DHT22;11702;50.856;4.348;2023-03-14T09:47:09;7.00;99.90
23069;DHT22;11702;50.856;4.348;2023-03-14T09:49:39;7.00;99.90
23069;DHT22;11702;50.856;4.348;2023-03-14T09:52:21;7.00;99.90
23069;DHT22;11702;50.856;4.348;2023-03-14T09:54:58;7.00;99.90
23069;DHT22;11702;50.856;4.348;2023-03-14T09:57:26;7.00;99.90
23069;DHT22;11702;50.856;4.348;2023-03-14T09:59:54;7.00;99.90
23069;DHT22;11702;50.856;4.348;2023-03-14T10:02:34;7.20;99.90
23069;DHT22;11702;50.856;4.348;2023-03-14T10:05:05;7.10;99.90
23069;DHT22;11702;50.856;4.348;2023-03-14T10:07:31;7.20;99.90
23069;DHT22;11702;50.856;4.348;2023-03-14T10:09:58;7.40;99.90
23069;DHT22;11702;50.856;4.348;2023-03-14T10:12:32;7.60;99.90
23069;DHT22;11702;50.856;4.348;2023-03-14T10:15:07;7.70;99.90
23069;DHT22;11702;50.856;4.348;2023-03-14T10:17:50;7.90;99.90
23069;DHT22;11702;50.856;4.348;2023-03-14T10:20:39;8.00;99.90
23069;DHT22;11702;50.856;4.348;2023-03-14T10:26:27;7.80;99.90
23069;DHT22;11702;50.856;4.348;2023-03-14T10:28:37;7.60;99.90
23069;DHT22;11702;50.856;4.348;2023-03-14T10:31:04;7.40;99.90
23069;DHT22;11702;50.856;4.348;2023-03-14T10:33:31;7.30;99.90
23069;DHT22;11702;50.856;4.348;2023-03-14T10:36:27;7.10;99.90
23069;DHT22;11702;50.856;4.348;2023-03-14T10:41:46;6.90;99.90
23069;DHT22;11702;50.856;4.348;2023-03-14T10:44:12;6.80;99.90
23069;DHT22;11702;50.856;4.348;2023-03-14T10:46:38;6.70;99.90
23069;DHT22;11702;50.856;4.348;2023-03-14T10:49:05;6.60;99.90
23069;DHT22;11702;50.856;4.348;2023-03-14T10:51:32;6.70;99.90
23069;DHT22;11702;50.856;4.348;2023-03-14T10:54:19;6.80;99.90
23069;DHT22;11702;50.856;4.348;2023-03-14T10:56:56;6.60;99.90
23069;DHT22;11702;50.856;4.348;2023-03-14T10:59:22;6.60;99.90
23069;DHT22;11702;50.856;4.348;2023-03-14T11:12:36;6.60;99.90
23069;DHT22;11702;50.856;4.348;2023-03-14T11:15:19;6.60;99.90
23069;DHT22;11702;50.856;4.348;2023-03-14T11:20:55;6.40;99.90
23069;DHT22;11702;50.856;4.348;2023-03-14T11:29:43;5.80;99.90
23069;DHT22;11702;50.856;4.348;2023-03-14T11:38:50;5.60;99.90
23069;DHT22;11702;50.856;4.348;2023-03-14T11:41:40;5.70;99.90
23069;DHT22;11702;50.856;4.348;2023-03-14T11:44:30;5.80;99.90
23069;DHT22;11702;50.856;4.348;2023-03-14T11:47:04;5.80;99.90
23069;DHT22;11702;50.856;4.348;2023-03-14T11:49:43;5.80;99.90
23069;DHT22;11702;50.856;4.348;2023-03-14T11:52:17;5.80;99.90
23069;DHT22;11702;50.856;4.348;2023-03-14T11:57:18;6.00;99.90
23069;DHT22;11702;50.856;4.348;2023-03-14T12:02:33;6.30;99.90
23069;DHT22;11702;50.856;4.348;2023-03-14T12:05:31;6.50;99.90
23069;DHT22;11702;50.856;4.348;2023-03-14T12:10:48;6.60;99.90
23069;DHT22;11702;50.856;4.348;2023-03-14T12:13:16;6.80;99.90
23069;DHT22;11702;50.856;4.348;2023-03-14T12:15:55;7.00;99.90
23069;DHT22;11702;50.856;4.348;2023-03-14T12:18:31;6.90;99.90
23069;DHT22;11702;50.856;4.348;2023-03-14T12:21:02;6.90;99.90
23069;DHT22;11702;50.856;4.348;2023-03-14T12:23:51;6.70;99.90
23069;DHT22;11702;50.856;4.348;2023-03-14T12:26:22;6.70;99.90
23069;DHT22;11702;50.856;4.348;2023-03-14T12:31:46;6.60;99.90
23069;DHT22;11702;50.856;4.348;2023-03-14T12:42:05;6.50;99.90
23069;DHT22;11702;50.856;4.348;2023-03-14T12:49:52;6.20;99.90
23069;DHT22;11702;50.856;4.348;2023-03-14T12:52:30;6.20;99.90
23069;DHT22;11702;50.856;4.348;2023-03-14T12:55:05;6.20;99.90
23069;DHT22;11702;50.856;4.348;2023-03-14T12:57:42;6.30;99.90
23069;DHT22;11702;50.856;4.348;2023-03-14T13:00:21;6.50;99.90
23069;DHT22;11702;50.856;4.348;2023-03-14T13:02:48;6.70;99.90
23069;DHT22;11702;50.856;4.348;2023-03-14T13:05:21;6.80;99.90
23069;DHT22;11702;50.856;4.348;2023-03-14T13:13:19;7.00;99.90
23069;DHT22;11702;50.856;4.348;2023-03-14T13:15:46;7.00;99.90
23069;DHT22;11702;50.856;4.348;2023-03-14T13:18:18;7.00;99.90
23069;DHT22;11702;50.856;4.348;2023-03-14T13:20:59;7.00;99.90
23069;DHT22;11702;50.856;4.348;2023-03-14T13:23:33;6.80;99.90
23069;DHT22;11702;50.856;4.348;2023-03-14T13:26:14;6.50;99.90
23069;DHT22;11702;50.856;4.348;2023-03-14T13:28:42;5.90;99.90
23069;DHT22;11702;50.856;4.348;2023-03-14T13:31:24;6.00;99.90
23069;DHT22;11702;50.856;4.348;2023-03-14T13:34:09;6.00;99.90
23069;DHT22;11702;50.856;4.348;2023-03-14T13:36:56;6.10;99.90
23069;DHT22;11702;50.856;4.348;2023-03-14T13:39:28;6.20;99.90
23069;DHT22;11702;50.856;4.348;2023-03-14T13:42:03;6.50;99.90
23069;DHT22;11702;50.856;4.348;2023-03-14T13:44:38;6.50;99.90
23069;DHT22;11702;50.856;4.348;2023-03-14T13:47:10;6.70;99.90
23069;DHT22;11702;50.856;4.348;2023-03-14T13:49:40;6.80;99.90
23069;DHT22;11702;50.856;4.348;2023-03-14T13:54:47;6.60;99.90
23069;DHT22;11702;50.856;4.348;2023-03-14T13:57:13;6.50;99.90
23069;DHT22;11702;50.856;4.348;2023-03-14T13:59:38;6.40;99.90
23069;DHT22;11702;50.856;4.348;2023-03-14T14:02:13;6.40;99.90
23069;DHT22;11702;50.856;4.348;2023-03-14T14:04:39;6.60;99.90
23069;DHT22;11702;50.856;4.348;2023-03-14T14:07:12;6.80;99.90
23069;DHT22;11702;50.856;4.348;2023-03-14T14:09:43;7.00;99.90
23069;DHT22;11702;50.856;4.348;2023-03-14T14:12:16;7.00;99.90
23069;DHT22;11702;50.856;4.348;2023-03-14T14:14:49;7.10;99.90
23069;DHT22;11702;50.856;4.348;2023-03-14T14:17:27;7.10;99.90
23069;DHT22;11702;50.856;4.348;2023-03-14T14:19:55;7.10;99.90
23069;DHT22;11702;50.856;4.348;2023-03-14T14:22:24;7.10;99.90
23069;DHT22;11702;50.856;4.348;2023-03-14T14:24:50;7.20;99.90
23069;DHT22;11702;50.856;4.348;2023-03-14T14:27:46;7.20;99.90
23069;DHT22;11702;50.856;4.348;2023-03-14T14:32:46;7.20;99.90
23069;DHT22;11702;50.856;4.348;2023-03-14T14:35:31;7.20;99.90
23069;DHT22;11702;50.856;4.348;2023-03-14T14:37:56;7.20;99.90
23069;DHT22;11702;50.856;4.348;2023-03-14T14:40:25;7.00;99.90
23069;DHT22;11702;50.856;4.348;2023-03-14T14:43:34;7.00;99.90
23069;DHT22;11702;50.856;4.348;2023-03-14T14:47:27;6.60;99.90
23069;DHT22;11702;50.856;4.348;2023-03-14T14:54:33;6.00;99.90
23069;DHT22;11702;50.856;4.348;2023-03-14T14:57:19;5.60;99.90
23069;DHT22;11702;50.856;4.348;2023-03-14T14:59:49;5.50;99.90
23069;DHT22;11702;50.856;4.348;2023-03-14T15:02:38;5.50;99.90
23069;DHT22;11702;50.856;4.348;2023-03-14T15:05:19;5.60;99.90
23069;DHT22;11702;50.856;4.348;2023-03-14T15:07:46;5.70;99.90
23069;DHT22;11702;50.856;4.348;2023-03-14T15:10:13;5.90;99.90
23069;DHT22;11702;50.856;4.348;2023-03-14T15:12:39;5.80;99.90
23069;DHT22;11702;50.856;4.348;2023-03-14T15:15:06;6.00;99.90
23069;DHT22;11702;50.856;4.348;2023-03-14T15:17:32;6.20;99.90
23069;DHT22;11702;50.856;4.348;2023-03-14T15:19:58;6.40;99.90
23069;DHT22;11702;50.856;4.348;2023-03-14T15:22:24;6.60;99.90
23069;DHT22;11702;50.856;4.348;2023-03-14T15:24:51;6.60;99.90
23069;DHT22;11702;50.856;4.348;2023-03-14T15:27:17;6.80;99.90
23069;DHT22;11702;50.856;4.348;2023-03-14T15:29:44;7.00;99.90
23069;DHT22;11702;50.856;4.348;2023-03-14T15:32:12;7.20;99.90
23069;DHT22;11702;50.856;4.348;2023-03-14T15:34:42;7.30;99.90
23069;DHT22;11702;50.856;4.348;2023-03-14T15:37:16;7.30;99.90
23069;DHT22;11702;50.856;4.348;2023-03-14T15:39:45;7.50;99.90
23069;DHT22;11702;50.856;4.348;2023-03-14T15:42:11;7.70;99.90
23069;DHT22;11702;50.856;4.348;2023-03-14T15:44:37;7.70;99.90
23069;DHT22;11702;50.856;4.348;2023-03-14T15:47:04;7.60;99.90
23069;DHT22;11702;50.856;4.348;2023-03-14T15:49:31;7.40;99.90
23069;DHT22;11702;50.856;4.348;2023-03-14T15:51:58;7.30;99.90
23069;DHT22;11702;50.856;4.348;2023-03-14T15:54:25;7.20;99.90
23069;DHT22;11702;50.856;4.348;2023-03-14T15:56:55;7.20;99.90
23069;DHT22;11702;50.856;4.348;2023-03-14T15:59:22;7.30;99.90
23069;DHT22;11702;50.856;4.348;2023-03-14T16:01:48;7.30;99.90
23069;DHT22;11702;50.856;4.348;2023-03-14T16:04:14;7.30;99.90
23069;DHT22;11702;50.856;4.348;2023-03-14T16:06:40;7.40;99.90
23069;DHT22;11702;50.856;4.348;2023-03-14T16:09:06;7.30;99.90
23069;DHT22;11702;50.856;4.348;2023-03-14T16:11:32;7.30;99.90
23069;DHT22;11702;50.856;4.348;2023-03-14T16:13:58;7.20;99.90
23069;DHT22;11702;50.856;4.348;2023-03-14T16:16:25;7.10;99.90
23069;DHT22;11702;50.856;4.348;2023-03-14T16:18:50;7.10;99.90
23069;DHT22;11702;50.856;4.348;2023-03-14T16:21:18;7.10;99.90
23069;DHT22;11702;50.856;4.348;2023-03-14T16:23:46;7.10;99.90
23069;DHT22;11702;50.856;4.348;2023-03-14T16:26:15;7.20;99.90
23069;DHT22;11702;50.856;4.348;2023-03-14T16:28:42;7.10;99.90
23069;DHT22;11702;50.856;4.348;2023-03-14T16:31:16;7.10;99.90
23069;DHT22;11702;50.856;4.348;2023-03-14T16:33:42;6.90;99.90
23069;DHT22;11702;50.856;4.348;2023-03-14T16:36:11;7.10;99.90
23069;DHT22;11702;50.856;4.348;2023-03-14T16:38:40;7.10;99.90
23069;DHT22;11702;50.856;4.348;2023-03-14T16:41:17;7.10;99.90
23069;DHT22;11702;50.856;4.348;2023-03-14T16:43:44;7.00;99.90
23069;DHT22;11702;50.856;4.348;2023-03-14T16:46:16;7.20;99.90
23069;DHT22;11702;50.856;4.348;2023-03-14T16:48:42;7.30;99.90
23069;DHT22;11702;50.856;4.348;2023-03-14T16:51:11;7.30;99.90
23069;DHT22;11702;50.856;4.348;2023-03-14T16:53:38;7.20;99.90
23069;DHT22;11702;50.856;4.348;2023-03-14T16:56:04;7.10;99.90
23069;DHT22;11702;50.856;4.348;2023-03-14T16:58:29;7.10;99.90
23069;DHT22;11702;50.856;4.348;2023-03-14T17:00:57;7.00;99.90
23069;DHT22;11702;50.856;4.348;2023-03-14T17:03:23;7.00;99.90
23069;DHT22;11702;50.856;4.348;2023-03-14T17:05:50;6.90;99.90
23069;DHT22;11702;50.856;4.348;2023-03-14T17:08:18;6.90;99.90
23069;DHT22;11702;50.856;4.348;2023-03-14T17:10:44;6.90;99.90
23069;DHT22;11702;50.856;4.348;2023-03-14T17:13:10;6.80;99.90
23069;DHT22;11702;50.856;4.348;2023-03-14T17:15:37;6.60;99.90
23069;DHT22;11702;50.856;4.348;2023-03-14T17:18:03;6.60;99.90
23069;DHT22;11702;50.856;4.348;2023-03-14T17:20:29;6.60;99.90
23069;DHT22;11702;50.856;4.348;2023-03-14T17:22:55;6.70;99.90
23069;DHT22;11702;50.856;4.348;2023-03-14T17:25:20;6.70;99.90
23069;DHT22;11702;50.856;4.348;2023-03-14T17:27:53;6.60;99.90
23069;DHT22;11702;50.856;4.348;2023-03-14T17:30:19;6.70;99.90
23069;DHT22;11702;50.856;4.348;2023-03-14T17:32:45;6.70;99.90
23069;DHT22;11702;50.856;4.348;2023-03-14T17:35:13;6.60;99.90
23069;DHT22;11702;50.856;4.348;2023-03-14T17:37:39;6.60;99.90
23069;DHT22;11702;50.856;4.348;2023-03-14T17:40:07;6.60;99.90
23069;DHT22;11702;50.856;4.348;2023-03-14T17:42:33;6.60;99.90
23069;DHT22;11702;50.856;4.348;2023-03-14T17:44:59;6.60;99.90
23069;DHT22;11702;50.856;4.348;2023-03-14T17:47:25;6.40;99.90
23069;DHT22;11702;50.856;4.348;2023-03-14T17:49:52;6.30;99.90
23069;DHT22;11702;50.856;4.348;2023-03-14T17:52:18;6.30;99.90
23069;DHT22;11702;50.856;4.348;2023-03-14T17:54:43;6.20;99.90
23069;DHT22;11702;50.856;4.348;2023-03-14T17:57:10;6.30;99.90
23069;DHT22;11702;50.856;4.348;2023-03-14T17:59:36;6.30;99.90
23069;DHT22;11702;50.856;4.348;2023-03-14T18:02:03;6.20;99.90
23069;DHT22;11702;50.856;4.348;2023-03-14T18:04:29;6.10;99.90
23069;DHT22;11702;50.856;4.348;2023-03-14T18:06:55;6.20;99.90
23069;DHT22;11702;50.856;4.348;2023-03-14T18:09:20;6.00;99.90
23069;DHT22;11702;50.856;4.348;2023-03-14T18:11:47;5.80;99.90
23069;DHT22;11702;50.856;4.348;2023-03-14T18:14:14;5.90;99.90
23069;DHT22;11702;50.856;4.348;2023-03-14T18:16:41;5.80;99.90
23069;DHT22;11702;50.856;4.348;2023-03-14T18:19:10;5.70;99.90
23069;DHT22;11702;50.856;4.348;2023-03-14T18:21:46;5.80;99.90
23069;DHT22;11702;50.856;4.348;2023-03-14T18:24:16;5.80;99.90
23069;DHT22;11702;50.856;4.348;2023-03-14T18:26:43;5.90;99.90
23069;DHT22;11702;50.856;4.348;2023-03-14T18:29:11;5.80;99.90
23069;DHT22;11702;50.856;4.348;2023-03-14T18:31:45;5.70;99.90
23069;DHT22;11702;50.856;4.348;2023-03-14T18:34:10;5.80;99.90
23069;DHT22;11702;50.856;4.348;2023-03-14T18:36:38;5.80;99.90
23069;DHT22;11702;50.856;4.348;2023-03-14T18:39:05;5.60;99.90
23069;DHT22;11702;50.856;4.348;2023-03-14T18:41:33;5.70;99.90
23069;DHT22;11702;50.856;4.348;2023-03-14T18:44:00;5.70;99.90
23069;DHT22;11702;50.856;4.348;2023-03-14T18:46:26;5.70;99.90
23069;DHT22;11702;50.856;4.348;2023-03-14T18:48:53;5.80;99.90
23069;DHT22;11702;50.856;4.348;2023-03-14T18:51:26;5.80;99.90
23069;DHT22;11702;50.856;4.348;2023-03-14T18:53:57;5.70;99.90
23069;DHT22;11702;50.856;4.348;2023-03-14T18:56:25;5.70;99.90
23069;DHT22;11702;50.856;4.348;2023-03-14T18:58:58;5.80;99.90
23069;DHT22;11702;50.856;4.348;2023-03-14T19:01:24;5.90;99.90
23069;DHT22;11702;50.856;4.348;2023-03-14T19:03:54;5.90;99.90
23069;DHT22;11702;50.856;4.348;2023-03-14T19:06:20;5.90;99.90
23069;DHT22;11702;50.856;4.348;2023-03-14T19:08:49;5.90;99.90
23069;DHT22;11702;50.856;4.348;2023-03-14T19:11:15;5.80;99.90
23069;DHT22;11702;50.856;4.348;2023-03-14T19:13:42;5.90;99.90
23069;DHT22;11702;50.856;4.348;2023-03-14T19:16:11;5.80;99.90
23069;DHT22;11702;50.856;4.348;2023-03-14T19:18:37;5.80;99.90
23069;DHT22;11702;50.856;4.348;2023-03-14T19:21:08;5.70;99.90
23069;DHT22;11702;50.856;4.348;2023-03-14T19:23:40;5.70;99.90
23069;DHT22;11702;50.856;4.348;2023-03-14T19:26:06;5.70;99.90
23069;DHT22;11702;50.856;4.348;2023-03-14T19:28:35;5.60;99.90
23069;DHT22;11702;50.856;4.348;2023-03-14T19:31:03;5.40;99.90
23069;DHT22;11702;50.856;4.348;2023-03-14T19:33:29;5.20;99.90
23069;DHT22;11702;50.856;4.348;2023-03-14T19:35:55;5.20;99.90
23069;DHT22;11702;50.856;4.348;2023-03-14T19:38:24;5.00;99.90
23069;DHT22;11702;50.856;4.348;2023-03-14T19:40:55;4.90;99.90
23069;DHT22;11702;50.856;4.348;2023-03-14T19:43:22;4.80;99.90
23069;DHT22;11702;50.856;4.348;2023-03-14T19:45:48;4.80;99.90
23069;DHT22;11702;50.856;4.348;2023-03-14T19:48:16;4.80;99.90
23069;DHT22;11702;50.856;4.348;2023-03-14T19:50:46;4.70;99.90
23069;DHT22;11702;50.856;4.348;2023-03-14T19:53:15;4.70;99.90
23069;DHT22;11702;50.856;4.348;2023-03-14T19:55:43;4.60;99.90
23069;DHT22;11702;50.856;4.348;2023-03-14T19:58:12;4.70;99.90
23069;DHT22;11702;50.856;4.348;2023-03-14T20:00:37;4.70;99.90
23069;DHT22;11702;50.856;4.348;2023-03-14T20:03:03;4.70;99.90
23069;DHT22;11702;50.856;4.348;2023-03-14T20:05:31;4.70;99.90
23069;DHT22;11702;50.856;4.348;2023-03-14T20:07:56;4.60;99.90
23069;DHT22;11702;50.856;4.348;2023-03-14T20:10:22;4.60;99.90
23069;DHT22;11702;50.856;4.348;2023-03-14T20:12:48;4.60;99.90
23069;DHT22;11702;50.856;4.348;2023-03-14T20:15:16;4.60;99.90
23069;DHT22;11702;50.856;4.348;2023-03-14T20:17:45;4.60;99.90
23069;DHT22;11702;50.856;4.348;2023-03-14T20:20:14;4.60;99.90
23069;DHT22;11702;50.856;4.348;2023-03-14T20:22:43;4.70;99.90
23069;DHT22;11702;50.856;4.348;2023-03-14T20:25:13;4.80;99.90
23069;DHT22;11702;50.856;4.348;2023-03-14T20:27:41;4.90;99.90
23069;DHT22;11702;50.856;4.348;2023-03-14T20:30:13;4.90;99.90
23069;DHT22;11702;50.856;4.348;2023-03-14T20:32:40;5.10;99.90
23069;DHT22;11702;50.856;4.348;2023-03-14T20:35:08;5.10;99.90
23069;DHT22;11702;50.856;4.348;2023-03-14T20:37:34;5.10;99.90
23069;DHT22;11702;50.856;4.348;2023-03-14T20:40:00;5.10;99.90
23069;DHT22;11702;50.856;4.348;2023-03-14T20:42:26;5.10;99.90
23069;DHT22;11702;50.856;4.348;2023-03-14T20:44:54;5.00;99.90
23069;DHT22;11702;50.856;4.348;2023-03-14T20:47:20;5.10;99.90
23069;DHT22;11702;50.856;4.348;2023-03-14T20:49:46;5.10;99.90
23069;DHT22;11702;50.856;4.348;2023-03-14T20:52:11;4.90;99.90
23069;DHT22;11702;50.856;4.348;2023-03-14T20:54:38;4.70;99.90
23069;DHT22;11702;50.856;4.348;2023-03-14T20:57:04;4.60;99.90
23069;DHT22;11702;50.856;4.348;2023-03-14T20:59:30;4.60;99.90
23069;DHT22;11702;50.856;4.348;2023-03-14T21:01:55;4.60;99.90
23069;DHT22;11702;50.856;4.348;2023-03-14T21:04:25;4.60;99.90
23069;DHT22;11702;50.856;4.348;2023-03-14T21:06:51;4.50;99.90
23069;DHT22;11702;50.856;4.348;2023-03-14T21:09:23;4.30;99.90
23069;DHT22;11702;50.856;4.348;2023-03-14T21:11:50;4.30;99.90
23069;DHT22;11702;50.856;4.348;2023-03-14T21:14:16;4.20;99.90
23069;DHT22;11702;50.856;4.348;2023-03-14T21:16:47;4.20;99.90
23069;DHT22;11702;50.856;4.348;2023-03-14T21:19:13;4.10;99.90
23069;DHT22;11702;50.856;4.348;2023-03-14T21:21:39;4.10;99.90
23069;DHT22;11702;50.856;4.348;2023-03-14T21:24:06;4.10;99.90
23069;DHT22;11702;50.856;4.348;2023-03-14T21:26:32;4.10;99.90
23069;DHT22;11702;50.856;4.348;2023-03-14T21:28:58;4.10;99.90
23069;DHT22;11702;50.856;4.348;2023-03-14T21:31:24;4.00;99.90
23069;DHT22;11702;50.856;4.348;2023-03-14T21:33:49;4.00;99.90
23069;DHT22;11702;50.856;4.348;2023-03-14T21:36:15;4.00;99.90
23069;DHT22;11702;50.856;4.348;2023-03-14T21:38:41;4.10;99.90
23069;DHT22;11702;50.856;4.348;2023-03-14T21:41:07;4.10;99.90
23069;DHT22;11702;50.856;4.348;2023-03-14T21:43:33;4.10;99.90
23069;DHT22;11702;50.856;4.348;2023-03-14T21:45:59;4.00;99.90
23069;DHT22;11702;50.856;4.348;2023-03-14T21:48:25;4.10;99.90
23069;DHT22;11702;50.856;4.348;2023-03-14T21:50:51;4.20;99.90
23069;DHT22;11702;50.856;4.348;2023-03-14T21:53:18;4.20;99.90
23069;DHT22;11702;50.856;4.348;2023-03-14T21:55:45;4.20;99.90
23069;DHT22;11702;50.856;4.348;2023-03-14T21:58:12;4.20;99.90
23069;DHT22;11702;50.856;4.348;2023-03-14T22:00:41;4.30;99.90
23069;DHT22;11702;50.856;4.348;2023-03-14T22:03:17;4.30;99.90
23069;DHT22;11702;50.856;4.348;2023-03-14T22:05:44;4.20;99.90
23069;DHT22;11702;50.856;4.348;2023-03-14T22:08:11;4.40;99.90
23069;DHT22;11702;50.856;4.348;2023-03-14T22:10:45;4.40;99.90
23069;DHT22;11702;50.856;4.348;2023-03-14T22:13:12;4.30;99.90
23069;DHT22;11702;50.856;4.348;2023-03-14T22:15:38;4.20;99.90
23069;DHT22;11702;50.856;4.348;2023-03-14T22:18:03;4.40;99.90
23069;DHT22;11702;50.856;4.348;2023-03-14T22:20:29;4.50;99.90
23069;DHT22;11702;50.856;4.348;2023-03-14T22:22:55;4.50;99.90
23069;DHT22;11702;50.856;4.348;2023-03-14T22:25:21;4.50;99.90
23069;DHT22;11702;50.856;4.348;2023-03-14T22:27:48;4.50;99.90
23069;DHT22;11702;50.856;4.348;2023-03-14T22:30:14;4.60;99.90
23069;DHT22;11702;50.856;4.348;2023-03-14T22:32:40;4.70;99.90
23069;DHT22;11702;50.856;4.348;2023-03-14T22:35:06;4.80;99.90
23069;DHT22;11702;50.856;4.348;2023-03-14T22:37:32;4.80;99.90
23069;DHT22;11702;50.856;4.348;2023-03-14T22:39:57;5.00;99.90
23069;DHT22;11702;50.856;4.348;2023-03-14T22:42:25;5.00;99.90
23069;DHT22;11702;50.856;4.348;2023-03-14T22:44:54;4.90;99.90
23069;DHT22;11702;50.856;4.348;2023-03-14T22:47:19;5.00;99.90
23069;DHT22;11702;50.856;4.348;2023-03-14T22:49:45;4.90;99.90
23069;DHT22;11702;50.856;4.348;2023-03-14T22:52:11;5.00;99.90
23069;DHT22;11702;50.856;4.348;2023-03-14T22:54:44;4.90;99.90
23069;DHT22;11702;50.856;4.348;2023-03-14T22:57:13;4.90;99.90
23069;DHT22;11702;50.856;4.348;2023-03-14T22:59:38;5.10;99.90
23069;DHT22;11702;50.856;4.348;2023-03-14T23:02:04;5.10;99.90
23069;DHT22;11702;50.856;4.348;2023-03-14T23:04:33;5.10;99.90
23069;DHT22;11702;50.856;4.348;2023-03-14T23:06:59;5.10;99.90
23069;DHT22;11702;50.856;4.348;2023-03-14T23:09:24;5.10;99.90
23069;DHT22;11702;50.856;4.348;2023-03-14T23:11:50;5.10;99.90